createdAt,value
2023-03-05T00:00:16.436Z,5.67
2023-03-05T00:03:03.121Z,3.07
2023-03-05T00:05:48.344Z,4.77
2023-03-05T00:08:34.323Z,3.90
2023-03-05T00:11:21.076Z,4.13
2023-03-05T00:14:06.767Z,2.40
2023-03-05T00:16:52.098Z,3.50
2023-03-05T00:19:37.486Z,3.03
2023-03-05T00:22:22.808Z,4.40
2023-03-05T00:25:08.783Z,3.80
2023-03-05T00:27:54.391Z,2.23
2023-03-05T00:30:40.605Z,6.67
2023-03-05T00:33:26.123Z,3.87
2023-03-05T00:36:11.716Z,3.43
2023-03-05T00:38:58.243Z,2.77
2023-03-05T00:41:44.202Z,3.43
2023-03-05T00:44:30.224Z,4.37
2023-03-05T00:47:15.499Z,2.30
2023-03-05T00:50:03.163Z,5.57
2023-03-05T00:52:48.760Z,5.20
2023-03-05T00:55:34.088Z,3.30
2023-03-05T00:58:19.270Z,2.40
2023-03-05T01:01:05.933Z,4.07
2023-03-05T01:03:52.038Z,3.07
2023-03-05T01:06:37.613Z,3.00
2023-03-05T01:09:22.768Z,3.57
2023-03-05T01:12:08.355Z,2.70
2023-03-05T01:14:54.011Z,2.57
2023-03-05T01:17:39.401Z,2.30
2023-03-05T01:20:25.095Z,4.30
2023-03-05T01:23:11.452Z,2.37
2023-03-05T01:25:58.781Z,3.60
2023-03-05T01:28:44.744Z,2.93
2023-03-05T01:31:30.400Z,3.27
2023-03-05T01:34:16.203Z,4.60
2023-03-05T01:37:01.394Z,2.33
2023-03-05T01:39:47.074Z,4.13
2023-03-05T01:42:32.322Z,2.93
2023-03-05T01:45:18.646Z,3.13
2023-03-05T01:48:04.878Z,3.27
2023-03-05T01:50:50.236Z,4.13
2023-03-05T01:53:36.795Z,3.07
2023-03-05T01:56:22.513Z,2.73
2023-03-05T01:59:08.000Z,2.60
2023-03-05T02:01:56.544Z,2.20
2023-03-05T02:04:46.460Z,2.73
2023-03-05T02:07:32.361Z,2.97
2023-03-05T02:10:24.489Z,2.63
2023-03-05T02:13:13.517Z,1.07
2023-03-05T02:16:00.017Z,2.07
2023-03-05T02:18:45.523Z,2.77
2023-03-05T02:21:43.130Z,2.07
2023-03-05T02:24:36.841Z,3.83
2023-03-05T02:27:27.898Z,2.33
2023-03-05T02:30:12.999Z,2.20
2023-03-05T02:32:58.921Z,1.80
2023-03-05T02:35:45.410Z,3.53
2023-03-05T02:38:31.003Z,2.33
2023-03-05T02:41:16.502Z,1.43
2023-03-05T02:44:02.355Z,2.10
2023-03-05T02:46:47.621Z,4.43
2023-03-05T02:49:32.832Z,3.03
2023-03-05T02:52:18.222Z,1.43
2023-03-05T02:55:04.417Z,6.00
2023-03-05T02:57:49.467Z,5.73
2023-03-05T03:00:34.774Z,2.43
2023-03-05T03:03:20.115Z,4.10
2023-03-05T03:06:06.127Z,1.97
2023-03-05T03:08:51.855Z,2.67
2023-03-05T03:11:37.462Z,3.80
2023-03-05T03:14:22.963Z,4.57
2023-03-05T03:17:14.826Z,3.67
2023-03-05T03:20:00.918Z,2.97
2023-03-05T03:22:46.851Z,3.20
2023-03-05T03:25:32.507Z,4.07
2023-03-05T03:28:17.879Z,3.50
2023-03-05T03:31:03.440Z,3.00
2023-03-05T03:33:49.633Z,3.97
2023-03-05T03:36:35.116Z,3.07
2023-03-05T03:39:21.105Z,1.70
2023-03-05T03:42:06.430Z,2.13
2023-03-05T03:44:52.343Z,2.67
2023-03-05T03:47:37.680Z,3.63
2023-03-05T03:50:23.172Z,2.97
2023-03-05T03:53:09.337Z,2.23
2023-03-05T03:55:58.629Z,2.40
2023-03-05T03:58:44.679Z,1.37
2023-03-05T04:01:29.816Z,1.20
2023-03-05T04:04:15.560Z,4.43
2023-03-05T04:07:00.695Z,3.07
2023-03-05T04:09:45.880Z,1.90
2023-03-05T04:12:31.329Z,1.50
2023-03-05T04:15:17.655Z,2.93
2023-03-05T04:18:02.926Z,1.83
2023-03-05T04:20:48.463Z,2.80
2023-03-05T04:23:34.034Z,3.83
2023-03-05T04:26:19.471Z,1.77
2023-03-05T04:29:05.579Z,2.40
2023-03-05T04:31:50.801Z,3.00
2023-03-05T04:34:37.972Z,1.73
2023-03-05T04:37:24.611Z,1.33
2023-03-05T04:40:11.101Z,1.73
2023-03-05T04:42:56.492Z,3.20
2023-03-05T04:45:43.778Z,2.23
2023-03-05T04:48:29.487Z,1.90
2023-03-05T04:51:14.874Z,3.43
2023-03-05T04:54:00.459Z,2.40
2023-03-05T04:56:45.974Z,1.70
2023-03-05T04:59:32.258Z,3.57
2023-03-05T05:02:17.487Z,4.70
2023-03-05T05:05:02.950Z,3.23
2023-03-05T05:07:48.675Z,1.80
2023-03-05T05:10:33.815Z,3.33
2023-03-05T05:13:19.286Z,3.53
2023-03-05T05:16:09.149Z,3.37
2023-03-05T05:18:54.282Z,2.13
2023-03-05T05:21:39.849Z,5.90
2023-03-05T05:24:25.132Z,4.83
2023-03-05T05:27:10.360Z,2.13
2023-03-05T05:29:56.037Z,3.13
2023-03-05T05:32:41.544Z,1.93
2023-03-05T05:35:27.004Z,2.40
2023-03-05T05:38:12.301Z,1.53
2023-03-05T05:41:09.715Z,3.30
2023-03-05T05:43:55.033Z,4.23
2023-03-05T05:46:40.536Z,3.47
2023-03-05T05:49:25.605Z,2.10
2023-03-05T05:52:11.100Z,4.30
2023-03-05T05:54:56.485Z,4.17
2023-03-05T05:57:41.710Z,4.90
2023-03-05T06:00:27.149Z,3.10
2023-03-05T06:03:12.374Z,1.43
2023-03-05T06:05:57.783Z,3.60
2023-03-05T06:08:43.776Z,3.10
2023-03-05T06:11:29.092Z,4.67
2023-03-05T06:14:14.393Z,1.67
2023-03-05T06:16:59.804Z,3.37
2023-03-05T06:19:45.659Z,4.60
2023-03-05T06:22:30.789Z,2.37
2023-03-05T06:25:16.459Z,2.93
2023-03-05T06:28:01.858Z,2.30
2023-03-05T06:30:47.525Z,4.03
2023-03-05T06:33:34.163Z,1.80
2023-03-05T06:36:21.395Z,3.67
2023-03-05T06:39:07.391Z,1.87
2023-03-05T06:41:52.574Z,2.00
2023-03-05T06:44:41.074Z,3.20
2023-03-05T06:47:26.308Z,2.50
2023-03-05T06:50:12.300Z,2.20
2023-03-05T06:52:57.848Z,3.03
2023-03-05T06:55:43.371Z,3.00
2023-03-05T06:58:28.748Z,4.67
2023-03-05T07:01:15.260Z,2.80
2023-03-05T07:04:00.790Z,1.17
2023-03-05T07:06:46.457Z,1.43
2023-03-05T07:09:32.007Z,2.37
2023-03-05T07:12:17.719Z,2.87
2023-03-05T07:15:02.928Z,2.73
2023-03-05T07:17:48.409Z,1.90
2023-03-05T07:20:35.750Z,2.77
2023-03-05T07:23:21.102Z,3.77
2023-03-05T07:26:07.028Z,1.80
2023-03-05T07:28:52.951Z,2.60
2023-03-05T07:31:38.770Z,2.23
2023-03-05T07:34:26.094Z,2.03
2023-03-05T07:37:13.975Z,3.17
2023-03-05T07:39:59.146Z,1.20
2023-03-05T07:42:44.815Z,3.77
2023-03-05T07:45:44.193Z,2.60
2023-03-05T07:48:29.556Z,3.47
2023-03-05T07:51:17.682Z,2.67
2023-03-05T07:54:03.058Z,2.07
2023-03-05T07:56:48.352Z,2.33
2023-03-05T07:59:33.839Z,2.23
2023-03-05T08:02:19.187Z,2.33
2023-03-05T08:05:04.807Z,2.53
2023-03-05T08:07:50.240Z,2.43
2023-03-05T08:10:37.245Z,4.33
2023-03-05T08:13:22.425Z,2.23
2023-03-05T08:16:13.240Z,4.77
2023-03-05T08:18:59.004Z,3.13
2023-03-05T08:21:45.200Z,6.73
2023-03-05T08:24:31.010Z,6.83
2023-03-05T08:27:16.365Z,2.77
2023-03-05T08:30:02.203Z,3.97
2023-03-05T08:32:49.991Z,2.23
2023-03-05T08:35:35.252Z,2.80
2023-03-05T08:38:21.160Z,2.10
2023-03-05T08:41:06.599Z,5.20
2023-03-05T08:43:52.111Z,2.83
2023-03-05T08:46:40.372Z,1.77
2023-03-05T08:49:25.623Z,3.20
2023-03-05T08:52:10.999Z,4.33
2023-03-05T08:54:56.782Z,2.70
2023-03-05T08:57:42.341Z,3.10
2023-03-05T09:00:27.666Z,2.90
2023-03-05T09:03:12.964Z,3.77
2023-03-05T09:06:03.473Z,3.07
2023-03-05T09:08:48.990Z,3.37
2023-03-05T09:11:34.678Z,2.40
2023-03-05T09:14:20.100Z,3.20
2023-03-05T09:17:05.642Z,2.33
2023-03-05T09:19:50.796Z,1.93
2023-03-05T09:22:36.184Z,1.63
2023-03-05T09:25:21.575Z,1.37
2023-03-05T09:28:07.769Z,1.93
2023-03-05T09:30:53.268Z,2.00
2023-03-05T09:33:39.683Z,3.03
2023-03-05T09:36:28.284Z,1.50
2023-03-05T09:39:13.847Z,2.17
2023-03-05T09:42:20.292Z,2.93
2023-03-05T09:45:29.833Z,2.07
2023-03-05T09:48:35.164Z,2.93
2023-03-05T09:51:29.388Z,2.33
2023-03-05T09:54:43.480Z,2.03
2023-03-05T09:57:48.950Z,3.00
2023-03-05T10:00:37.110Z,2.50
2023-03-05T10:03:30.218Z,2.80
2023-03-05T10:06:35.326Z,1.57
2023-03-05T10:09:36.976Z,2.57
2023-03-05T10:12:37.855Z,2.03
2023-03-05T10:15:38.653Z,2.30
2023-03-05T10:18:30.190Z,3.70
2023-03-05T10:21:15.583Z,1.60
2023-03-05T10:24:30.550Z,3.27
2023-03-05T10:27:51.173Z,2.57
2023-03-05T10:31:14.498Z,2.67
2023-03-05T10:34:12.336Z,2.93
2023-03-05T10:37:03.227Z,3.37
2023-03-05T10:39:56.430Z,3.87
2023-03-05T10:42:56.494Z,2.13
2023-03-05T10:45:45.590Z,2.07
2023-03-05T10:48:37.583Z,1.30
2023-03-05T10:51:34.193Z,3.60
2023-03-05T10:54:37.741Z,1.50
2023-03-05T10:57:41.497Z,1.87
2023-03-05T11:00:31.017Z,2.53
2023-03-05T11:03:24.179Z,3.97
2023-03-05T11:06:15.754Z,1.93
2023-03-05T11:09:32.338Z,1.50
2023-03-05T11:12:26.481Z,3.00
2023-03-05T11:15:12.109Z,2.83
2023-03-05T11:18:17.418Z,2.03
2023-03-05T11:21:12.600Z,2.30
2023-03-05T11:24:24.470Z,1.87
2023-03-05T11:27:36.624Z,1.30
2023-03-05T11:30:33.396Z,1.20
2023-03-05T11:33:22.312Z,1.27
2023-03-05T11:36:46.563Z,1.30
2023-03-05T11:39:36.422Z,2.13
2023-03-05T11:42:21.982Z,2.60
2023-03-05T11:45:21.047Z,2.23
2023-03-05T11:48:25.570Z,2.00
2023-03-05T11:51:43.416Z,1.43
2023-03-05T11:54:42.301Z,2.33
2023-03-05T11:57:34.900Z,1.67
2023-03-05T12:00:30.906Z,2.27
2023-03-05T12:03:29.934Z,1.83
2023-03-05T12:06:37.586Z,1.40
2023-03-05T12:09:30.553Z,1.80
2023-03-05T12:12:16.088Z,2.27
2023-03-05T12:15:22.395Z,2.57
2023-03-05T12:18:12.608Z,1.77
2023-03-05T12:21:00.935Z,2.43
2023-03-05T12:23:58.100Z,1.97
2023-03-05T12:26:53.345Z,2.70
2023-03-05T12:29:52.467Z,2.30
2023-03-05T12:32:43.921Z,2.30
2023-03-05T12:35:36.750Z,2.77
2023-03-05T12:38:30.984Z,2.03
2023-03-05T12:41:22.626Z,2.20
2023-03-05T12:44:08.093Z,3.53
2023-03-05T12:47:11.866Z,1.40
2023-03-05T12:49:57.321Z,1.67
2023-03-05T12:52:46.081Z,2.50
2023-03-05T12:55:36.908Z,1.70
2023-03-05T12:58:31.500Z,2.47
2023-03-05T13:05:39.243Z,1.37
2023-03-05T13:08:31.246Z,3.60
2023-03-05T13:11:20.741Z,1.53
2023-03-05T13:14:39.534Z,1.67
2023-03-05T13:17:56.953Z,1.47
2023-03-05T13:20:42.130Z,1.97
2023-03-05T13:23:28.820Z,1.47
2023-03-05T13:26:15.751Z,2.23
2023-03-05T13:29:10.180Z,1.60
2023-03-05T13:32:01.501Z,1.20
2023-03-05T13:34:48.061Z,1.77
2023-03-05T13:37:36.794Z,1.53
2023-03-05T13:40:27.867Z,1.10
2023-03-05T13:43:18.407Z,1.40
2023-03-05T13:46:04.605Z,1.40
2023-03-05T13:48:52.481Z,1.63
2023-03-05T13:51:44.984Z,2.77
2023-03-05T13:54:30.586Z,1.70
2023-03-05T13:57:43.772Z,2.40
2023-03-05T14:00:37.303Z,2.27
2023-03-05T14:03:28.277Z,2.93
2023-03-05T14:06:19.668Z,2.33
2023-03-05T14:09:08.474Z,2.40
2023-03-05T14:12:19.597Z,1.50
2023-03-05T14:15:21.942Z,2.50
2023-03-05T14:18:19.314Z,1.93
2023-03-05T14:21:10.823Z,1.60
2023-03-05T14:23:56.042Z,2.10
2023-03-05T14:26:49.350Z,2.20
2023-03-05T14:29:34.820Z,2.23
2023-03-05T14:32:35.847Z,2.40
2023-03-05T14:35:25.195Z,2.73
2023-03-05T14:38:22.295Z,2.77
2023-03-05T14:41:39.624Z,2.97
2023-03-05T14:44:25.089Z,1.50
2023-03-05T14:47:10.523Z,1.73
2023-03-05T14:49:56.157Z,2.77
2023-03-05T14:52:41.892Z,1.83
2023-03-05T14:55:29.760Z,6.07
2023-03-05T14:58:18.256Z,11.87
2023-03-05T15:01:04.065Z,6.20
2023-03-05T15:03:49.218Z,1.50
2023-03-05T15:06:37.480Z,2.30
2023-03-05T15:09:22.998Z,1.83
2023-03-05T15:12:11.489Z,1.37
2023-03-05T15:14:57.485Z,3.00
2023-03-05T15:17:45.385Z,1.60
2023-03-05T15:20:31.574Z,2.20
2023-03-05T15:23:16.702Z,4.57
2023-03-05T15:26:03.164Z,3.07
2023-03-05T15:28:48.365Z,4.03
2023-03-05T15:31:33.510Z,2.80
2023-03-05T15:34:20.281Z,2.97
2023-03-05T15:37:05.814Z,2.53
2023-03-05T15:39:53.228Z,2.10
2023-03-05T15:42:40.088Z,2.20
2023-03-05T15:45:25.719Z,2.70
2023-03-05T15:48:11.853Z,2.23
2023-03-05T15:50:57.341Z,2.73
2023-03-05T15:53:42.719Z,3.10
2023-03-05T15:56:28.359Z,2.20
2023-03-05T15:59:13.482Z,2.30
2023-03-05T16:01:59.299Z,2.13
2023-03-05T16:04:44.809Z,3.30
2023-03-05T16:07:32.803Z,2.73
2023-03-05T16:10:22.191Z,2.57
2023-03-05T16:13:12.042Z,2.10
2023-03-05T16:15:58.206Z,2.70
2023-03-05T16:18:46.418Z,2.80
2023-03-05T16:21:32.061Z,2.00
2023-03-05T16:24:17.569Z,2.73
2023-03-05T16:27:03.263Z,2.33
2023-03-05T16:29:51.483Z,3.90
2023-03-05T16:32:38.642Z,2.90
2023-03-05T16:35:24.299Z,3.30
2023-03-05T16:38:10.148Z,4.33
2023-03-05T16:41:07.710Z,4.37
2023-03-05T16:43:54.721Z,3.60
2023-03-05T16:46:40.344Z,2.93
2023-03-05T16:49:26.217Z,4.00
2023-03-05T16:52:18.649Z,6.10
2023-03-05T16:55:05.736Z,7.03
2023-03-05T16:57:51.001Z,7.70
2023-03-05T17:00:36.697Z,7.17
2023-03-05T17:03:22.073Z,5.27
2023-03-05T17:06:19.635Z,3.90
2023-03-05T17:09:05.305Z,3.67
2023-03-05T17:11:54.410Z,3.27
2023-03-05T17:14:39.834Z,4.10
2023-03-05T17:17:25.303Z,3.30
2023-03-05T17:20:13.504Z,4.10
2023-03-05T17:22:58.731Z,4.07
2023-03-05T17:25:44.551Z,4.17
2023-03-05T17:28:29.603Z,4.30
2023-03-05T17:31:15.329Z,5.03
2023-03-05T17:34:01.646Z,6.20
2023-03-05T17:36:47.047Z,5.20
2023-03-05T17:39:32.756Z,6.17
2023-03-05T17:42:18.618Z,10.60
2023-03-05T17:45:04.127Z,6.40
2023-03-05T17:47:50.567Z,7.67
2023-03-05T17:50:35.970Z,7.47
2023-03-05T17:53:22.902Z,7.80
2023-03-05T17:56:13.176Z,7.60
2023-03-05T17:58:58.798Z,9.40
2023-03-05T18:01:44.187Z,7.17
2023-03-05T18:04:29.513Z,7.97
2023-03-05T18:07:14.859Z,7.80
2023-03-05T18:10:00.337Z,8.03
2023-03-05T18:12:45.849Z,9.53
2023-03-05T18:15:31.296Z,8.40
2023-03-05T18:18:17.618Z,8.73
2023-03-05T18:21:03.127Z,9.47
2023-03-05T18:23:49.653Z,7.30
2023-03-05T18:26:35.016Z,8.80
2023-03-05T18:29:20.585Z,10.17
2023-03-05T18:32:06.150Z,8.80
2023-03-05T18:34:51.898Z,8.43
2023-03-05T18:37:37.147Z,10.03
2023-03-05T18:40:25.530Z,8.57
2023-03-05T18:43:11.237Z,8.67
2023-03-05T18:45:57.006Z,6.90
2023-03-05T18:48:43.093Z,8.53
2023-03-05T18:51:29.744Z,9.63
2023-03-05T18:54:15.319Z,7.93
2023-03-05T18:57:00.962Z,7.53
2023-03-05T18:59:46.280Z,8.77
2023-03-05T19:02:32.465Z,5.90
2023-03-05T19:05:18.542Z,7.73
2023-03-05T19:08:03.732Z,7.40
2023-03-05T19:10:51.765Z,7.83
2023-03-05T19:13:41.298Z,5.87
2023-03-05T19:16:29.799Z,6.73
2023-03-05T19:19:19.484Z,7.53
2023-03-05T19:22:05.365Z,6.43
2023-03-05T19:24:50.916Z,6.07
2023-03-05T19:27:37.533Z,6.40
2023-03-05T19:30:22.998Z,6.23
2023-03-05T19:33:09.192Z,7.10
2023-03-05T19:35:56.806Z,6.17
2023-03-05T19:38:41.965Z,7.70
2023-03-05T19:41:27.350Z,6.00
2023-03-05T19:44:13.004Z,7.10
2023-03-05T19:46:58.436Z,6.27
2023-03-05T19:49:43.998Z,8.13
2023-03-05T19:52:29.538Z,5.80
2023-03-05T19:55:16.430Z,6.60
2023-03-05T20:01:18.665Z,7.13
2023-03-05T20:04:05.339Z,7.50
2023-03-05T20:06:51.261Z,7.17
2023-03-05T20:09:36.732Z,7.47
2023-03-05T20:12:22.863Z,8.13
2023-03-05T20:15:08.344Z,7.33
2023-03-05T20:17:53.561Z,8.60
2023-03-05T20:20:38.744Z,6.33
2023-03-05T20:23:24.668Z,5.97
2023-03-05T20:26:09.795Z,6.87
2023-03-05T20:28:56.614Z,7.20
2023-03-05T20:31:41.943Z,8.77
2023-03-05T20:34:27.589Z,8.53
2023-03-05T20:37:12.989Z,6.97
2023-03-05T20:39:58.367Z,7.40
2023-03-05T20:42:43.837Z,7.93
2023-03-05T20:45:28.968Z,7.17
2023-03-05T20:48:14.937Z,8.07
2023-03-05T20:51:14.246Z,7.07
2023-03-05T20:54:04.455Z,8.63
2023-03-05T20:56:50.279Z,7.50
2023-03-05T20:59:35.726Z,7.20
2023-03-05T21:02:21.630Z,6.97
2023-03-05T21:05:07.614Z,8.23
2023-03-05T21:07:53.500Z,8.60
2023-03-05T21:10:38.790Z,7.67
2023-03-05T21:13:24.273Z,7.57
2023-03-05T21:16:13.537Z,8.27
2023-03-05T21:18:59.001Z,8.27
2023-03-05T21:21:44.458Z,8.20
2023-03-05T21:25:17.979Z,7.60
2023-03-05T21:28:12.943Z,8.90
2023-03-05T21:30:58.522Z,9.07
2023-03-05T21:33:44.439Z,8.47
2023-03-05T21:36:29.985Z,8.73
2023-03-05T21:39:15.308Z,9.93
2023-03-05T21:42:00.829Z,9.83
2023-03-05T21:44:46.009Z,10.03
2023-03-05T21:47:31.717Z,9.70
2023-03-05T21:50:17.111Z,10.10
2023-03-05T21:53:03.109Z,9.67
2023-03-05T21:56:00.515Z,10.40
2023-03-05T21:58:50.177Z,9.93
2023-03-05T22:01:35.759Z,10.70
2023-03-05T22:04:20.964Z,11.60
2023-03-05T22:07:06.617Z,9.77
2023-03-05T22:09:59.223Z,10.90
2023-03-05T22:13:20.253Z,11.63
2023-03-05T22:16:07.541Z,11.00
2023-03-05T22:18:53.471Z,12.67
2023-03-05T22:21:40.217Z,12.80
2023-03-05T22:24:25.890Z,11.67
2023-03-05T22:27:11.362Z,12.67
2023-03-05T22:29:56.720Z,12.10
2023-03-05T22:32:41.963Z,12.97
2023-03-05T22:35:27.720Z,11.90
2023-03-05T22:38:13.883Z,11.33
2023-03-05T22:41:00.089Z,13.50
2023-03-05T22:43:47.075Z,12.27
2023-03-05T22:46:32.673Z,12.17
2023-03-05T22:49:18.129Z,13.00
2023-03-05T22:52:04.001Z,13.23
2023-03-05T22:54:49.147Z,11.23
2023-03-05T22:57:34.612Z,12.53
2023-03-05T23:00:22.505Z,13.83
2023-03-05T23:03:07.905Z,13.07
2023-03-05T23:05:53.600Z,13.97
2023-03-05T23:08:39.033Z,14.27
2023-03-05T23:11:24.510Z,13.53
2023-03-05T23:14:09.685Z,13.27
2023-03-05T23:16:55.358Z,13.47
2023-03-05T23:19:40.961Z,14.60
2023-03-05T23:22:26.160Z,14.40
2023-03-05T23:25:13.199Z,14.60
2023-03-05T23:27:59.535Z,13.90
2023-03-05T23:30:45.087Z,13.47
2023-03-05T23:33:30.608Z,13.27
2023-03-05T23:36:16.338Z,13.33
2023-03-05T23:39:01.994Z,13.77
2023-03-05T23:41:47.788Z,14.63
2023-03-05T23:44:33.087Z,14.67
2023-03-05T23:47:18.474Z,14.37
2023-03-05T23:50:06.165Z,13.70
2023-03-05T23:52:51.882Z,14.47
2023-03-05T23:55:46.668Z,15.40
2023-03-05T23:58:32.392Z,14.27
